sensor_id;sensor_type;location;lat;lon;timestamp;pressure;altitude;pressure_sealevel;temperature;humidity
4972;BME280;2501;51.214;6.768;2023-03-01T00:02:03;102703.47;;;1.03;64.63
4972;BME280;2501;51.214;6.768;2023-03-01T00:04:32;102715.13;;;0.98;65.33
4972;BME280;2501;51.214;6.768;2023-03-01T00:07:01;102709.50;;;0.92;66.22
4972;BME280;2501;51.214;6.768;2023-03-01T00:09:29;102709.25;;;0.89;66.48
4972;BME280;2501;51.214;6.768;2023-03-01T00:11:58;102713.63;;;0.78;66.31
4972;BME280;2501;51.214;6.768;2023-03-01T00:14:26;102711.22;;;0.69;66.83
4972;BME280;2501;51.214;6.768;2023-03-01T00:16:57;102711.69;;;0.76;66.39
4972;BME280;2501;51.214;6.768;2023-03-01T00:19:25;102709.22;;;0.77;66.46
4972;BME280;2501;51.214;6.768;2023-03-01T00:21:54;102715.06;;;0.75;66.47
4972;BME280;2501;51.214;6.768;2023-03-01T00:24:22;102716.28;;;0.68;66.42
4972;BME280;2501;51.214;6.768;2023-03-01T00:26:52;102712.94;;;0.69;66.51
4972;BME280;2501;51.214;6.768;2023-03-01T00:29:21;102712.13;;;0.70;66.52
4972;BME280;2501;51.214;6.768;2023-03-01T00:31:49;102707.53;;;0.66;66.58
4972;BME280;2501;51.214;6.768;2023-03-01T00:34:20;102703.69;;;0.61;66.57
4972;BME280;2501;51.214;6.768;2023-03-01T00:36:49;102702.66;;;0.59;67.31
4972;BME280;2501;51.214;6.768;2023-03-01T00:39:17;102703.56;;;0.59;67.08
4972;BME280;2501;51.214;6.768;2023-03-01T00:41:46;102709.63;;;0.60;67.12
4972;BME280;2501;51.214;6.768;2023-03-01T00:44:14;102693.00;;;0.56;67.21
4972;BME280;2501;51.214;6.768;2023-03-01T00:46:43;102694.66;;;0.56;67.13
4972;BME280;2501;51.214;6.768;2023-03-01T00:49:11;102681.44;;;0.51;66.87
4972;BME280;2501;51.214;6.768;2023-03-01T00:51:42;102681.31;;;0.50;67.18
4972;BME280;2501;51.214;6.768;2023-03-01T00:54:11;102684.06;;;0.41;67.27
4972;BME280;2501;51.214;6.768;2023-03-01T00:56:39;102687.91;;;0.46;67.41
4972;BME280;2501;51.214;6.768;2023-03-01T00:59:08;102681.84;;;0.46;67.64
4972;BME280;2501;51.214;6.768;2023-03-01T01:01:36;102682.28;;;0.40;67.77
4972;BME280;2501;51.214;6.768;2023-03-01T01:04:06;102692.91;;;0.33;68.28
4972;BME280;2501;51.214;6.768;2023-03-01T01:06:37;102680.31;;;0.26;69.06
4972;BME280;2501;51.214;6.768;2023-03-01T01:09:12;102687.69;;;0.21;68.85
4972;BME280;2501;51.214;6.768;2023-03-01T01:11:43;102689.94;;;0.17;69.06
4972;BME280;2501;51.214;6.768;2023-03-01T01:14:12;102692.50;;;0.17;69.63
4972;BME280;2501;51.214;6.768;2023-03-01T01:16:41;102684.41;;;0.12;69.46
4972;BME280;2501;51.214;6.768;2023-03-01T01:19:10;102676.03;;;0.05;70.04
4972;BME280;2501;51.214;6.768;2023-03-01T01:21:39;102666.94;;;-0.02;70.12
4972;BME280;2501;51.214;6.768;2023-03-01T01:24:11;102669.53;;;-0.12;70.34
4972;BME280;2501;51.214;6.768;2023-03-01T01:26:40;102667.41;;;-0.18;70.84
4972;BME280;2501;51.214;6.768;2023-03-01T01:29:09;102649.78;;;-0.02;70.92
4972;BME280;2501;51.214;6.768;2023-03-01T01:31:40;102644.91;;;0.13;70.21
4972;BME280;2501;51.214;6.768;2023-03-01T01:34:13;102647.38;;;0.12;70.27
4972;BME280;2501;51.214;6.768;2023-03-01T01:36:43;102647.47;;;-0.09;70.22
4972;BME280;2501;51.214;6.768;2023-03-01T01:39:14;102642.09;;;0.10;70.14
4972;BME280;2501;51.214;6.768;2023-03-01T01:41:43;102636.31;;;0.03;70.19
4972;BME280;2501;51.214;6.768;2023-03-01T01:44:17;102637.78;;;-0.01;70.55
4972;BME280;2501;51.214;6.768;2023-03-01T01:46:49;102636.09;;;-0.01;70.70
4972;BME280;2501;51.214;6.768;2023-03-01T01:49:29;102632.63;;;-0.01;70.53
4972;BME280;2501;51.214;6.768;2023-03-01T01:52:07;102628.13;;;-0.04;71.06
4972;BME280;2501;51.214;6.768;2023-03-01T01:54:47;102620.72;;;0.01;71.11
4972;BME280;2501;51.214;6.768;2023-03-01T01:57:23;102612.97;;;0.01;71.13
4972;BME280;2501;51.214;6.768;2023-03-01T01:59:54;102611.28;;;0.02;70.81
4972;BME280;2501;51.214;6.768;2023-03-01T02:02:24;102607.03;;;0.02;70.92
4972;BME280;2501;51.214;6.768;2023-03-01T02:05:01;102609.50;;;0.00;70.81
4972;BME280;2501;51.214;6.768;2023-03-01T02:07:38;102613.66;;;-0.02;70.87
4972;BME280;2501;51.214;6.768;2023-03-01T02:10:10;102613.94;;;-0.09;71.43
4972;BME280;2501;51.214;6.768;2023-03-01T02:12:39;102615.75;;;-0.08;71.67
4972;BME280;2501;51.214;6.768;2023-03-01T02:15:08;102610.09;;;-0.14;73.82
4972;BME280;2501;51.214;6.768;2023-03-01T02:17:37;102615.16;;;-0.15;74.99
4972;BME280;2501;51.214;6.768;2023-03-01T02:20:13;102627.22;;;-0.26;76.17
4972;BME280;2501;51.214;6.768;2023-03-01T02:22:45;102622.50;;;-0.42;76.92
4972;BME280;2501;51.214;6.768;2023-03-01T02:25:26;102623.41;;;-0.41;77.60
4972;BME280;2501;51.214;6.768;2023-03-01T02:28:00;102625.50;;;-0.47;77.89
4972;BME280;2501;51.214;6.768;2023-03-01T02:30:35;102625.50;;;-0.47;78.29
4972;BME280;2501;51.214;6.768;2023-03-01T02:33:25;102627.69;;;-0.52;77.45
4972;BME280;2501;51.214;6.768;2023-03-01T02:35:52;102622.44;;;-0.53;76.91
4972;BME280;2501;51.214;6.768;2023-03-01T02:38:22;102623.09;;;-0.56;76.19
4972;BME280;2501;51.214;6.768;2023-03-01T02:40:51;102618.84;;;-0.55;75.25
4972;BME280;2501;51.214;6.768;2023-03-01T02:43:23;102616.25;;;-0.55;74.93
4972;BME280;2501;51.214;6.768;2023-03-01T02:45:58;102615.25;;;-0.67;74.90
4972;BME280;2501;51.214;6.768;2023-03-01T02:48:27;102604.75;;;-0.49;75.24
4972;BME280;2501;51.214;6.768;2023-03-01T02:51:04;102601.53;;;-0.46;74.27
4972;BME280;2501;51.214;6.768;2023-03-01T02:53:39;102608.59;;;-0.44;73.69
4972;BME280;2501;51.214;6.768;2023-03-01T02:56:10;102605.38;;;-0.41;73.58
4972;BME280;2501;51.214;6.768;2023-03-01T02:58:39;102612.09;;;-0.43;73.25
4972;BME280;2501;51.214;6.768;2023-03-01T03:01:16;102606.94;;;-0.43;73.30
4972;BME280;2501;51.214;6.768;2023-03-01T03:03:44;102602.53;;;-0.44;73.20
4972;BME280;2501;51.214;6.768;2023-03-01T03:06:13;102604.63;;;-0.50;73.41
4972;BME280;2501;51.214;6.768;2023-03-01T03:08:41;102606.44;;;-0.49;73.53
4972;BME280;2501;51.214;6.768;2023-03-01T03:11:10;102606.31;;;-0.51;73.88
4972;BME280;2501;51.214;6.768;2023-03-01T03:13:38;102607.31;;;-0.49;74.41
4972;BME280;2501;51.214;6.768;2023-03-01T03:16:16;102611.00;;;-0.57;74.75
4972;BME280;2501;51.214;6.768;2023-03-01T03:18:44;102604.44;;;-0.63;75.23
4972;BME280;2501;51.214;6.768;2023-03-01T03:21:14;102597.47;;;-0.64;75.33
4972;BME280;2501;51.214;6.768;2023-03-01T03:23:43;102598.91;;;-0.68;75.37
4972;BME280;2501;51.214;6.768;2023-03-01T03:26:11;102590.94;;;-0.71;75.54
4972;BME280;2501;51.214;6.768;2023-03-01T03:28:40;102591.34;;;-0.77;75.44
4972;BME280;2501;51.214;6.768;2023-03-01T03:31:09;102590.78;;;-0.62;75.05
4972;BME280;2501;51.214;6.768;2023-03-01T03:33:40;102586.97;;;-0.78;75.13
4972;BME280;2501;51.214;6.768;2023-03-01T03:36:08;102589.75;;;-0.64;74.87
4972;BME280;2501;51.214;6.768;2023-03-01T03:38:38;102588.06;;;-0.64;74.74
4972;BME280;2501;51.214;6.768;2023-03-01T03:41:07;102588.06;;;-0.64;74.48
4972;BME280;2501;51.214;6.768;2023-03-01T03:43:38;102584.78;;;-0.73;74.74
4972;BME280;2501;51.214;6.768;2023-03-01T03:46:08;102590.81;;;-0.73;75.04
4972;BME280;2501;51.214;6.768;2023-03-01T03:48:41;102583.75;;;-0.85;74.67
4972;BME280;2501;51.214;6.768;2023-03-01T03:51:11;102580.72;;;-0.91;75.01
4972;BME280;2501;51.214;6.768;2023-03-01T03:53:40;102578.22;;;-0.80;74.89
4972;BME280;2501;51.214;6.768;2023-03-01T03:56:09;102573.44;;;-0.75;74.42
4972;BME280;2501;51.214;6.768;2023-03-01T03:58:38;102577.44;;;-0.79;74.37
4972;BME280;2501;51.214;6.768;2023-03-01T04:01:06;102582.06;;;-0.75;74.54
4972;BME280;2501;51.214;6.768;2023-03-01T04:03:34;102573.31;;;-0.77;74.72
4972;BME280;2501;51.214;6.768;2023-03-01T04:06:06;102575.25;;;-0.74;74.30
4972;BME280;2501;51.214;6.768;2023-03-01T04:08:34;102573.84;;;-0.81;74.45
4972;BME280;2501;51.214;6.768;2023-03-01T04:11:04;102564.47;;;-0.90;74.34
4972;BME280;2501;51.214;6.768;2023-03-01T04:13:45;102565.50;;;-0.88;74.37
4972;BME280;2501;51.214;6.768;2023-03-01T04:16:13;102555.03;;;-0.80;74.43
4972;BME280;2501;51.214;6.768;2023-03-01T04:18:41;102546.53;;;-0.79;73.74
4972;BME280;2501;51.214;6.768;2023-03-01T04:21:13;102553.59;;;-0.76;73.64
4972;BME280;2501;51.214;6.768;2023-03-01T04:23:42;102552.69;;;-0.77;73.56
4972;BME280;2501;51.214;6.768;2023-03-01T04:26:10;102551.69;;;-0.79;73.44
4972;BME280;2501;51.214;6.768;2023-03-01T04:28:40;102557.47;;;-0.81;73.54
4972;BME280;2501;51.214;6.768;2023-03-01T04:31:13;102549.88;;;-0.80;73.76
4972;BME280;2501;51.214;6.768;2023-03-01T04:33:45;102549.75;;;-0.81;73.71
4972;BME280;2501;51.214;6.768;2023-03-01T04:36:17;102544.34;;;-0.84;73.60
4972;BME280;2501;51.214;6.768;2023-03-01T04:38:46;102550.41;;;-0.84;73.81
4972;BME280;2501;51.214;6.768;2023-03-01T04:41:16;102551.41;;;-0.82;73.81
4972;BME280;2501;51.214;6.768;2023-03-01T04:43:45;102554.00;;;-0.82;73.89
4972;BME280;2501;51.214;6.768;2023-03-01T04:46:15;102550.41;;;-0.84;73.92
4972;BME280;2501;51.214;6.768;2023-03-01T04:48:44;102546.28;;;-0.82;74.08
4972;BME280;2501;51.214;6.768;2023-03-01T04:51:16;102546.72;;;-0.97;74.37
4972;BME280;2501;51.214;6.768;2023-03-01T04:53:44;102552.75;;;-0.87;74.05
4972;BME280;2501;51.214;6.768;2023-03-01T04:56:13;102541.13;;;-0.82;74.00
4972;BME280;2501;51.214;6.768;2023-03-01T04:58:43;102538.97;;;-0.87;73.80
4972;BME280;2501;51.214;6.768;2023-03-01T05:01:14;102542.31;;;-0.88;74.28
4972;BME280;2501;51.214;6.768;2023-03-01T05:03:44;102546.91;;;-0.84;73.96
4972;BME280;2501;51.214;6.768;2023-03-01T05:06:16;102549.69;;;-0.93;74.30
4972;BME280;2501;51.214;6.768;2023-03-01T05:08:45;102554.19;;;-0.90;74.28
4972;BME280;2501;51.214;6.768;2023-03-01T05:11:13;102546.47;;;-1.00;74.68
4972;BME280;2501;51.214;6.768;2023-03-01T05:13:42;102542.97;;;-0.91;74.45
4972;BME280;2501;51.214;6.768;2023-03-01T05:16:10;102538.72;;;-0.90;74.49
4972;BME280;2501;51.214;6.768;2023-03-01T05:18:40;102532.94;;;-0.98;74.20
4972;BME280;2501;51.214;6.768;2023-03-01T05:21:10;102531.16;;;-0.99;74.32
4972;BME280;2501;51.214;6.768;2023-03-01T05:23:44;102538.63;;;-1.02;74.50
4972;BME280;2501;51.214;6.768;2023-03-01T05:26:13;102536.53;;;-0.96;74.43
4972;BME280;2501;51.214;6.768;2023-03-01T05:28:42;102534.66;;;-1.09;74.57
4972;BME280;2501;51.214;6.768;2023-03-01T05:31:11;102535.56;;;-1.08;74.58
4972;BME280;2501;51.214;6.768;2023-03-01T05:33:40;102529.66;;;-1.07;74.56
4972;BME280;2501;51.214;6.768;2023-03-01T05:36:10;102528.63;;;-1.09;74.55
4972;BME280;2501;51.214;6.768;2023-03-01T05:38:38;102527.34;;;-1.14;74.43
4972;BME280;2501;51.214;6.768;2023-03-01T05:41:14;102521.28;;;-1.04;74.48
4972;BME280;2501;51.214;6.768;2023-03-01T05:43:42;102518.78;;;-1.03;74.17
4972;BME280;2501;51.214;6.768;2023-03-01T05:46:11;102522.00;;;-0.95;73.69
4972;BME280;2501;51.214;6.768;2023-03-01T05:48:40;102526.28;;;-1.06;73.83
4972;BME280;2501;51.214;6.768;2023-03-01T05:51:09;102526.00;;;-0.99;73.74
4972;BME280;2501;51.214;6.768;2023-03-01T05:53:37;102522.03;;;-1.06;73.57
4972;BME280;2501;51.214;6.768;2023-03-01T05:56:06;102522.38;;;-0.91;73.56
4972;BME280;2501;51.214;6.768;2023-03-01T05:58:37;102523.16;;;-0.92;72.49
4972;BME280;2501;51.214;6.768;2023-03-01T06:01:11;102524.69;;;-0.94;72.47
4972;BME280;2501;51.214;6.768;2023-03-01T06:03:40;102521.16;;;-0.84;72.25
4972;BME280;2501;51.214;6.768;2023-03-01T06:06:09;102520.13;;;-0.86;71.82
4972;BME280;2501;51.214;6.768;2023-03-01T06:08:37;102524.41;;;-0.87;72.00
4972;BME280;2501;51.214;6.768;2023-03-01T06:11:05;102526.38;;;-0.94;72.16
4972;BME280;2501;51.214;6.768;2023-03-01T06:13:36;102522.06;;;-0.84;72.07
4972;BME280;2501;51.214;6.768;2023-03-01T06:16:06;102525.97;;;-0.89;71.96
4972;BME280;2501;51.214;6.768;2023-03-01T06:18:35;102523.75;;;-0.84;71.94
4972;BME280;2501;51.214;6.768;2023-03-01T06:21:04;102523.59;;;-0.76;71.66
4972;BME280;2501;51.214;6.768;2023-03-01T06:23:33;102523.75;;;-0.84;71.26
4972;BME280;2501;51.214;6.768;2023-03-01T06:26:05;102517.53;;;-0.76;71.33
4972;BME280;2501;51.214;6.768;2023-03-01T06:28:34;102524.22;;;-0.78;70.97
4972;BME280;2501;51.214;6.768;2023-03-01T06:31:05;102517.00;;;-0.72;71.07
4972;BME280;2501;51.214;6.768;2023-03-01T06:33:34;102517.28;;;-0.79;70.91
4972;BME280;2501;51.214;6.768;2023-03-01T06:36:04;102512.25;;;-0.78;70.65
4972;BME280;2501;51.214;6.768;2023-03-01T06:38:33;102511.84;;;-0.72;70.75
4972;BME280;2501;51.214;6.768;2023-03-01T06:41:02;102511.72;;;-0.74;70.73
4972;BME280;2501;51.214;6.768;2023-03-01T06:43:30;102516.75;;;-0.75;70.82
4972;BME280;2501;51.214;6.768;2023-03-01T06:45:59;102516.88;;;-0.74;70.90
4972;BME280;2501;51.214;6.768;2023-03-01T06:48:30;102513.22;;;-0.65;70.79
4972;BME280;2501;51.214;6.768;2023-03-01T06:50:58;102506.03;;;-0.69;70.56
4972;BME280;2501;51.214;6.768;2023-03-01T06:53:27;102509.81;;;-0.76;70.94
4972;BME280;2501;51.214;6.768;2023-03-01T06:55:56;102514.56;;;-0.71;70.72
4972;BME280;2501;51.214;6.768;2023-03-01T06:58:25;102512.88;;;-0.70;71.07
4972;BME280;2501;51.214;6.768;2023-03-01T07:00:54;102512.03;;;-0.59;70.79
4972;BME280;2501;51.214;6.768;2023-03-01T07:03:22;102504.06;;;-0.62;70.42
4972;BME280;2501;51.214;6.768;2023-03-01T07:05:53;102508.56;;;-0.59;70.00
4972;BME280;2501;51.214;6.768;2023-03-01T07:08:22;102516.41;;;-0.58;69.75
4972;BME280;2501;51.214;6.768;2023-03-01T07:10:55;102510.47;;;-0.57;69.27
4972;BME280;2501;51.214;6.768;2023-03-01T07:13:23;102507.00;;;-0.57;69.28
4972;BME280;2501;51.214;6.768;2023-03-01T07:15:52;102511.72;;;-0.52;69.12
4972;BME280;2501;51.214;6.768;2023-03-01T07:18:20;102506.91;;;-0.47;69.38
4972;BME280;2501;51.214;6.768;2023-03-01T07:20:49;102497.88;;;-0.42;69.28
4972;BME280;2501;51.214;6.768;2023-03-01T07:23:20;102498.38;;;-0.36;68.79
4972;BME280;2501;51.214;6.768;2023-03-01T07:25:52;102500.75;;;-0.27;68.72
4972;BME280;2501;51.214;6.768;2023-03-01T07:28:22;102495.88;;;-0.35;68.43
4972;BME280;2501;51.214;6.768;2023-03-01T07:30:51;102494.03;;;-0.25;67.72
4972;BME280;2501;51.214;6.768;2023-03-01T07:33:20;102501.59;;;-0.05;67.53
4972;BME280;2501;51.214;6.768;2023-03-01T07:35:55;102492.09;;;0.06;66.95
4972;BME280;2501;51.214;6.768;2023-03-01T07:38:27;102489.50;;;0.06;66.55
4972;BME280;2501;51.214;6.768;2023-03-01T07:40:58;102487.38;;;0.00;66.14
4972;BME280;2501;51.214;6.768;2023-03-01T07:43:27;102484.16;;;0.26;65.73
4972;BME280;2501;51.214;6.768;2023-03-01T07:45:58;102490.00;;;0.12;66.04
4972;BME280;2501;51.214;6.768;2023-03-01T07:48:27;102496.44;;;0.52;65.50
4972;BME280;2501;51.214;6.768;2023-03-01T07:50:57;102497.19;;;0.27;64.88
4972;BME280;2501;51.214;6.768;2023-03-01T07:53:29;102498.34;;;0.43;64.65
4972;BME280;2501;51.214;6.768;2023-03-01T07:56:04;102495.63;;;0.41;64.38
4972;BME280;2501;51.214;6.768;2023-03-01T07:58:34;102500.13;;;0.32;64.47
4972;BME280;2501;51.214;6.768;2023-03-01T08:01:03;102504.28;;;0.53;64.62
4972;BME280;2501;51.214;6.768;2023-03-01T08:03:32;102499.22;;;0.55;64.40
4972;BME280;2501;51.214;6.768;2023-03-01T08:06:01;102504.97;;;0.74;63.67
4972;BME280;2501;51.214;6.768;2023-03-01T08:08:33;102500.22;;;0.92;63.40
4972;BME280;2501;51.214;6.768;2023-03-01T08:11:04;102494.44;;;1.31;61.67
4972;BME280;2501;51.214;6.768;2023-03-01T08:13:33;102490.88;;;1.17;60.85
4972;BME280;2501;51.214;6.768;2023-03-01T08:16:02;102502.94;;;0.93;61.45
4972;BME280;2501;51.214;6.768;2023-03-01T08:18:31;102498.66;;;0.94;61.80
4972;BME280;2501;51.214;6.768;2023-03-01T08:21:02;102491.91;;;1.08;62.26
4972;BME280;2501;51.214;6.768;2023-03-01T08:23:33;102486.34;;;1.26;61.70
4972;BME280;2501;51.214;6.768;2023-03-01T08:26:06;102490.88;;;1.17;61.35
4972;BME280;2501;51.214;6.768;2023-03-01T08:28:35;102494.59;;;1.21;61.23
4972;BME280;2501;51.214;6.768;2023-03-01T08:31:13;102490.00;;;1.05;61.08
4972;BME280;2501;51.214;6.768;2023-03-01T08:33:42;102491.34;;;1.12;61.35
4972;BME280;2501;51.214;6.768;2023-03-01T08:36:16;102482.75;;;1.36;60.94
4972;BME280;2501;51.214;6.768;2023-03-01T08:38:49;102495.69;;;1.36;60.68
4972;BME280;2501;51.214;6.768;2023-03-01T08:41:17;102481.19;;;1.26;60.38
4972;BME280;2501;51.214;6.768;2023-03-01T08:43:46;102482.16;;;1.40;60.50
4972;BME280;2501;51.214;6.768;2023-03-01T08:46:14;102479.59;;;1.28;60.21
4972;BME280;2501;51.214;6.768;2023-03-01T08:48:43;102484.28;;;1.46;59.96
4972;BME280;2501;51.214;6.768;2023-03-01T08:51:13;102477.19;;;1.55;59.47
4972;BME280;2501;51.214;6.768;2023-03-01T08:53:43;102472.44;;;1.74;59.11
4972;BME280;2501;51.214;6.768;2023-03-01T08:56:15;102476.94;;;1.77;59.09
4972;BME280;2501;51.214;6.768;2023-03-01T08:58:44;102476.50;;;1.95;58.74
4972;BME280;2501;51.214;6.768;2023-03-01T09:01:15;102476.94;;;2.01;58.11
4972;BME280;2501;51.214;6.768;2023-03-01T09:03:44;102475.34;;;2.41;57.26
4972;BME280;2501;51.214;6.768;2023-03-01T09:06:12;102477.97;;;2.30;56.60
4972;BME280;2501;51.214;6.768;2023-03-01T09:08:43;102477.38;;;2.07;57.00
4972;BME280;2501;51.214;6.768;2023-03-01T09:11:16;102472.47;;;2.12;57.04
4972;BME280;2501;51.214;6.768;2023-03-01T09:13:45;102466.28;;;2.10;56.70
4972;BME280;2501;51.214;6.768;2023-03-01T09:16:15;102470.31;;;2.44;56.41
4972;BME280;2501;51.214;6.768;2023-03-01T09:18:49;102463.88;;;2.91;55.23
4972;BME280;2501;51.214;6.768;2023-03-01T09:21:20;102468.03;;;2.36;55.72
4972;BME280;2501;51.214;6.768;2023-03-01T09:23:49;102467.03;;;2.60;55.72
4972;BME280;2501;51.214;6.768;2023-03-01T09:26:21;102461.50;;;2.41;55.02
4972;BME280;2501;51.214;6.768;2023-03-01T09:28:52;102463.28;;;2.42;55.17
4972;BME280;2501;51.214;6.768;2023-03-01T09:31:22;102457.09;;;2.53;54.89
4972;BME280;2501;51.214;6.768;2023-03-01T09:33:53;102448.03;;;2.73;54.19
4972;BME280;2501;51.214;6.768;2023-03-01T09:36:23;102436.75;;;2.86;53.67
4972;BME280;2501;51.214;6.768;2023-03-01T09:38:52;102446.31;;;2.87;53.60
4972;BME280;2501;51.214;6.768;2023-03-01T09:41:46;102426.81;;;2.65;53.14
4972;BME280;2501;51.214;6.768;2023-03-01T09:44:24;102435.97;;;2.87;52.81
4972;BME280;2501;51.214;6.768;2023-03-01T09:46:54;102432.50;;;2.73;53.20
4972;BME280;2501;51.214;6.768;2023-03-01T09:49:25;102438.16;;;2.67;53.86
4972;BME280;2501;51.214;6.768;2023-03-01T09:51:58;102424.84;;;3.02;53.95
4972;BME280;2501;51.214;6.768;2023-03-01T09:54:28;102428.69;;;2.94;53.06
4972;BME280;2501;51.214;6.768;2023-03-01T09:57:09;102431.50;;;3.12;52.92
4972;BME280;2501;51.214;6.768;2023-03-01T09:59:56;102430.66;;;2.85;52.88
4972;BME280;2501;51.214;6.768;2023-03-01T10:02:36;102424.28;;;2.93;53.08
4972;BME280;2501;51.214;6.768;2023-03-01T10:05:18;102423.09;;;2.88;52.45
4972;BME280;2501;51.214;6.768;2023-03-01T10:07:56;102423.91;;;2.74;53.09
4972;BME280;2501;51.214;6.768;2023-03-01T10:10:33;102424.25;;;3.06;52.72
4972;BME280;2501;51.214;6.768;2023-03-01T10:13:13;102422.47;;;3.05;52.63
4972;BME280;2501;51.214;6.768;2023-03-01T10:15:47;102419.06;;;3.06;52.24
4972;BME280;2501;51.214;6.768;2023-03-01T10:18:23;102408.38;;;3.15;52.29
4972;BME280;2501;51.214;6.768;2023-03-01T10:20:56;102411.50;;;3.09;52.06
4972;BME280;2501;51.214;6.768;2023-03-01T10:23:29;102403.06;;;3.27;52.35
4972;BME280;2501;51.214;6.768;2023-03-01T10:26:14;102400.13;;;3.35;51.93
4972;BME280;2501;51.214;6.768;2023-03-01T10:28:57;102393.75;;;3.30;51.64
4972;BME280;2501;51.214;6.768;2023-03-01T10:31:36;102385.03;;;3.43;51.80
4972;BME280;2501;51.214;6.768;2023-03-01T10:34:11;102384.34;;;3.60;50.81
4972;BME280;2501;51.214;6.768;2023-03-01T10:36:41;102390.63;;;3.78;50.75
4972;BME280;2501;51.214;6.768;2023-03-01T10:39:16;102395.56;;;3.74;50.51
4972;BME280;2501;51.214;6.768;2023-03-01T10:41:56;102390.97;;;3.99;50.17
4972;BME280;2501;51.214;6.768;2023-03-01T10:44:43;102386.78;;;3.87;50.06
4972;BME280;2501;51.214;6.768;2023-03-01T10:47:18;102384.28;;;3.88;49.51
4972;BME280;2501;51.214;6.768;2023-03-01T10:49:54;102374.06;;;4.20;50.19
4972;BME280;2501;51.214;6.768;2023-03-01T10:52:26;102383.47;;;3.74;50.83
4972;BME280;2501;51.214;6.768;2023-03-01T10:54:57;102376.75;;;4.22;50.46
4972;BME280;2501;51.214;6.768;2023-03-01T10:57:35;102373.72;;;4.14;50.09
4972;BME280;2501;51.214;6.768;2023-03-01T11:00:23;102361.72;;;4.02;50.12
4972;BME280;2501;51.214;6.768;2023-03-01T11:03:11;102369.41;;;3.71;50.29
4972;BME280;2501;51.214;6.768;2023-03-01T11:06:00;102367.63;;;3.70;50.52
4972;BME280;2501;51.214;6.768;2023-03-01T11:08:40;102354.63;;;3.99;50.53
4972;BME280;2501;51.214;6.768;2023-03-01T11:11:30;102350.28;;;4.44;49.58
4972;BME280;2501;51.214;6.768;2023-03-01T11:14:00;102336.16;;;4.24;49.31
4972;BME280;2501;51.214;6.768;2023-03-01T11:16:35;102328.06;;;4.49;49.52
4972;BME280;2501;51.214;6.768;2023-03-01T11:19:17;102335.38;;;4.56;48.87
4972;BME280;2501;51.214;6.768;2023-03-01T11:21:55;102330.47;;;4.46;49.16
4972;BME280;2501;51.214;6.768;2023-03-01T11:24:30;102329.22;;;4.39;48.49
4972;BME280;2501;51.214;6.768;2023-03-01T11:27:02;102314.19;;;4.34;48.75
4972;BME280;2501;51.214;6.768;2023-03-01T11:29:36;102316.47;;;4.28;48.79
4972;BME280;2501;51.214;6.768;2023-03-01T11:32:11;102308.72;;;4.44;48.50
4972;BME280;2501;51.214;6.768;2023-03-01T11:34:44;102303.34;;;4.41;48.62
4972;BME280;2501;51.214;6.768;2023-03-01T11:37:22;102301.22;;;4.34;48.46
4972;BME280;2501;51.214;6.768;2023-03-01T11:39:59;102295.50;;;4.55;48.58
4972;BME280;2501;51.214;6.768;2023-03-01T11:42:40;102294.84;;;4.60;48.55
4972;BME280;2501;51.214;6.768;2023-03-01T11:45:12;102296.00;;;4.48;48.82
4972;BME280;2501;51.214;6.768;2023-03-01T11:50:36;102306.22;;;4.45;49.06
4972;BME280;2501;51.214;6.768;2023-03-01T11:53:29;102307.56;;;4.39;48.40
4972;BME280;2501;51.214;6.768;2023-03-01T11:56:05;102304.16;;;4.40;48.33
4972;BME280;2501;51.214;6.768;2023-03-01T11:58:49;102302.75;;;4.61;48.54
4972;BME280;2501;51.214;6.768;2023-03-01T12:04:32;102306.94;;;4.43;47.99
4972;BME280;2501;51.214;6.768;2023-03-01T12:07:07;102302.66;;;4.60;48.05
4972;BME280;2501;51.214;6.768;2023-03-01T12:09:50;102297.09;;;4.84;47.63
4972;BME280;2501;51.214;6.768;2023-03-01T12:12:29;102294.63;;;4.87;47.47
4972;BME280;2501;51.214;6.768;2023-03-01T12:18:29;102283.19;;;4.84;47.20
4972;BME280;2501;51.214;6.768;2023-03-01T12:21:16;102280.50;;;4.82;46.84
4972;BME280;2501;51.214;6.768;2023-03-01T12:24:13;102276.94;;;4.64;46.65
4972;BME280;2501;51.214;6.768;2023-03-01T12:26:52;102263.78;;;4.77;46.19
4972;BME280;2501;51.214;6.768;2023-03-01T12:29:26;102280.69;;;5.02;45.90
4972;BME280;2501;51.214;6.768;2023-03-01T12:32:29;102259.38;;;5.09;45.66
4972;BME280;2501;51.214;6.768;2023-03-01T12:35:16;102255.19;;;5.29;44.78
4972;BME280;2501;51.214;6.768;2023-03-01T12:38:06;102255.63;;;5.38;44.73
4972;BME280;2501;51.214;6.768;2023-03-01T12:41:10;102246.69;;;5.15;45.57
4972;BME280;2501;51.214;6.768;2023-03-01T12:43:51;102251.16;;;5.17;46.34
4972;BME280;2501;51.214;6.768;2023-03-01T12:46:35;102246.09;;;5.37;46.65
4972;BME280;2501;51.214;6.768;2023-03-01T12:49:12;102231.00;;;5.13;46.68
4972;BME280;2501;51.214;6.768;2023-03-01T12:51:50;102229.09;;;5.27;46.99
4972;BME280;2501;51.214;6.768;2023-03-01T12:54:26;102239.81;;;5.33;47.12
4972;BME280;2501;51.214;6.768;2023-03-01T12:56:56;102229.53;;;5.18;46.82
4972;BME280;2501;51.214;6.768;2023-03-01T12:59:31;102220.78;;;5.34;46.93
4972;BME280;2501;51.214;6.768;2023-03-01T13:02:13;102229.25;;;5.30;46.82
4972;BME280;2501;51.214;6.768;2023-03-01T13:04:53;102231.38;;;5.21;46.32
4972;BME280;2501;51.214;6.768;2023-03-01T13:07:33;102223.97;;;5.29;46.62
4972;BME280;2501;51.214;6.768;2023-03-01T13:10:17;102221.00;;;5.39;46.67
4972;BME280;2501;51.214;6.768;2023-03-01T13:13:02;102219.69;;;5.47;46.66
4972;BME280;2501;51.214;6.768;2023-03-01T13:15:33;102217.09;;;5.47;46.58
4972;BME280;2501;51.214;6.768;2023-03-01T13:18:11;102210.53;;;5.55;46.55
4972;BME280;2501;51.214;6.768;2023-03-01T13:20:55;102207.88;;;5.36;46.20
4972;BME280;2501;51.214;6.768;2023-03-01T13:23:26;102206.91;;;5.34;46.31
4972;BME280;2501;51.214;6.768;2023-03-01T13:26:11;102195.69;;;5.52;46.00
4972;BME280;2501;51.214;6.768;2023-03-01T13:28:55;102183.19;;;5.45;45.44
4972;BME280;2501;51.214;6.768;2023-03-01T13:34:58;102187.81;;;5.69;45.33
4972;BME280;2501;51.214;6.768;2023-03-01T13:37:28;102190.03;;;5.61;45.32
4972;BME280;2501;51.214;6.768;2023-03-01T13:40:00;102191.81;;;5.62;45.20
4972;BME280;2501;51.214;6.768;2023-03-01T13:42:37;102184.16;;;5.65;45.00
4972;BME280;2501;51.214;6.768;2023-03-01T13:45:20;102182.22;;;5.79;45.27
4972;BME280;2501;51.214;6.768;2023-03-01T13:47:53;102183.56;;;5.71;45.08
4972;BME280;2501;51.214;6.768;2023-03-01T13:50:25;102178.78;;;5.80;44.86
4972;BME280;2501;51.214;6.768;2023-03-01T13:52:58;102176.84;;;6.11;44.45
4972;BME280;2501;51.214;6.768;2023-03-01T13:55:36;102174.16;;;7.06;43.23
4972;BME280;2501;51.214;6.768;2023-03-01T13:58:16;102164.38;;;7.21;42.58
4972;BME280;2501;51.214;6.768;2023-03-01T14:00:46;102167.38;;;7.10;42.84